CLMO2: North Canadian River

Data processed at Sat Dec 09 2017 23:24


All information presented herein is the property of the government of the United States of America and may be revised or deleted at any time without prior notice.
Dissemination of this information without the expressed written consent of the Public Affairs Office, Tulsa District U.S. Army Corps of Engineers is strictly prohibited.
These data are gathered electronically and, as presented, have not undergone any form of quality control. These data are not guaranteed to be valid or correct.
Go to home page.
Go to station list.

Upstream stations:

Downstream station:
Previous Day
Next Day
Current Day
    
SHEF ID:       CLMO2     North Canadian River near Calume
STATION TYPE:  

                STAGE  STAGE(2)  RIV-FLOW  WTR-TEMP   DIS-OXY        PH   CONDUCT  BAT-LOAD
                   ft        ft       cfs         F      mg/l        su   umho/cm      volt
              Ccp-Rev   Ccp-Rev   Ccp-Rev   Ccp-Rev   Ccp-Rev   Ccp-Rev   Ccp-Rev   Ccp-Rev
(US/Central)
12/07 00:00      3.30      3.74        19     40.53     12.68      8.40      1458     12.49
12/07 01:00      3.49      3.74        28     39.81     12.67      8.40      1467     12.49
12/07 02:00      3.43      3.74        25     39.20     12.67      8.30      1470     12.41
12/07 03:00      3.40      3.73        24     38.62     12.67      8.30      1471     12.41
12/07 04:00      3.38      3.75        23     37.98     12.71      8.30      1470     12.41
12/07 05:00      3.35      3.73        21     37.18     12.75      8.30      1473     12.33
12/07 06:00      3.32      3.75        20     36.45     12.81      8.30      1476     12.33
12/07 07:00      3.31      3.73        20     35.69     12.89      8.30      1478     12.33
12/07 08:00      3.44      3.73        25     35.28     12.95      8.30      1479     12.33
12/07 09:00      3.73      3.74        40     34.95     13.05      8.30      1476     12.33
12/07 10:00      3.80      3.76        44     35.10     13.22      8.40      1471     12.97
12/07 11:00      3.75      3.76        41     35.96     13.42      8.40      1468     13.37
12/07 12:00      3.55      3.78        31     37.22     13.55      8.40      1462     13.37
12/07 13:00      3.75      3.75        41     38.48     13.62      8.40      1458     13.37
12/07 14:00      3.75      3.75        41     39.45     13.69      8.40      1451     13.44
12/07 15:00      3.75      3.75        41     40.03     13.78      8.40      1442     13.13
12/07 16:00      3.69      3.76        38     39.92     13.88      8.40      1447     12.97
12/07 17:00      3.56      3.76        31     39.60     13.91      8.40      1444     12.89
12/07 18:00      3.35      3.76        21     39.25     13.88      8.40      1446     12.73
12/07 19:00      3.37      3.76        22     38.70     13.83      8.40      1452     12.65
12/07 20:00      3.41      3.75        24     37.90     13.77      8.40      1461     12.57
12/07 21:00      3.46      3.74        26     37.04     13.74      8.40      1465     12.57
12/07 22:00      3.51      3.74        29     36.21     13.71      8.40      1471     12.49
12/07 23:00      3.56      3.74        31     35.33     13.70      8.40      1476     12.49